createdAt,value
2019-05-05T00:02:28.042Z,11.00
2019-05-05T00:04:59.440Z,10.90
2019-05-05T00:07:30.329Z,10.90
2019-05-05T00:10:00.268Z,11.00
2019-05-05T00:12:36.302Z,11.00
2019-05-05T00:15:16.967Z,11.00
2019-05-05T00:17:46.963Z,11.00
2019-05-05T00:20:16.781Z,11.00
2019-05-05T00:22:46.661Z,11.00
2019-05-05T00:25:16.505Z,11.00
2019-05-05T00:27:46.439Z,11.00
2019-05-05T00:30:16.371Z,11.00
2019-05-05T00:32:46.250Z,11.00
2019-05-05T00:35:16.067Z,11.00
2019-05-05T00:37:45.946Z,11.00
2019-05-05T00:40:16.359Z,11.00
2019-05-05T00:42:46.293Z,11.00
2019-05-05T00:45:16.121Z,11.00
2019-05-05T00:47:54.433Z,11.00
2019-05-05T00:50:25.212Z,11.00
2019-05-05T00:52:55.360Z,11.00
2019-05-05T00:55:25.938Z,11.00
2019-05-05T00:58:00.525Z,11.00
2019-05-05T01:00:41.222Z,10.90
2019-05-05T01:03:11.944Z,10.90
2019-05-05T01:05:55.789Z,10.90
2019-05-05T01:11:18.965Z,10.90
2019-05-05T01:13:49.502Z,10.80
2019-05-05T01:16:19.362Z,10.80
2019-05-05T01:18:50.413Z,10.80
2019-05-05T01:21:20.232Z,10.80
2019-05-05T01:23:50.033Z,10.80
2019-05-05T01:26:19.928Z,10.80
2019-05-05T01:28:49.749Z,10.80
2019-05-05T01:31:20.578Z,10.80
2019-05-05T01:33:58.793Z,10.80
2019-05-05T01:36:30.205Z,10.80
2019-05-05T01:39:17.984Z,10.80
2019-05-05T01:41:49.436Z,10.80
2019-05-05T01:44:19.263Z,10.70
2019-05-05T01:46:49.142Z,10.60
2019-05-05T01:49:19.012Z,10.60
2019-05-05T01:51:48.913Z,10.60
2019-05-05T01:54:18.734Z,10.60
2019-05-05T01:56:52.271Z,10.70
2019-05-05T01:59:26.626Z,10.60
2019-05-05T02:01:56.481Z,10.60
2019-05-05T02:04:27.447Z,10.60
2019-05-05T02:06:57.350Z,10.60
2019-05-05T02:09:35.418Z,10.60
2019-05-05T02:12:05.480Z,10.50
2019-05-05T02:14:36.456Z,10.40
2019-05-05T02:17:06.281Z,10.30
2019-05-05T02:19:36.271Z,10.30
2019-05-05T02:22:06.190Z,10.20
2019-05-05T02:24:36.164Z,10.30
2019-05-05T02:27:06.105Z,10.30
2019-05-05T02:29:40.647Z,10.30
2019-05-05T02:32:30.757Z,10.30
2019-05-05T02:35:08.302Z,10.40
2019-05-05T02:37:38.136Z,10.40
2019-05-05T02:40:09.598Z,10.40
2019-05-05T02:42:40.330Z,10.40
2019-05-05T02:45:12.036Z,10.40
2019-05-05T02:47:47.131Z,10.50
2019-05-05T02:50:18.418Z,10.50
2019-05-05T02:52:49.418Z,10.50
2019-05-05T02:55:20.870Z,10.50
2019-05-05T02:58:08.677Z,10.50
2019-05-05T03:00:55.420Z,10.50
2019-05-05T03:03:25.714Z,10.50
2019-05-05T03:05:56.002Z,10.50
2019-05-05T03:08:27.432Z,10.40
2019-05-05T03:10:59.309Z,10.50
2019-05-05T03:13:33.580Z,10.50
2019-05-05T03:16:23.822Z,10.40
2019-05-05T03:18:55.732Z,10.40
2019-05-05T03:21:26.013Z,10.50
2019-05-05T03:23:56.455Z,10.40
2019-05-05T03:26:26.544Z,10.40
2019-05-05T03:29:00.970Z,10.40
2019-05-05T03:31:30.930Z,10.40
2019-05-05T03:34:01.068Z,10.40
2019-05-05T03:36:30.987Z,10.40
2019-05-05T03:39:05.164Z,10.40
2019-05-05T03:41:40.112Z,10.40
2019-05-05T03:44:17.751Z,10.40
2019-05-05T03:46:47.767Z,10.30
2019-05-05T03:49:17.796Z,10.30
2019-05-05T03:51:47.806Z,10.30
2019-05-05T03:54:18.388Z,10.30
2019-05-05T03:56:49.993Z,10.30
2019-05-05T03:59:19.972Z,10.30
2019-05-05T04:01:54.665Z,10.30
2019-05-05T04:04:29.080Z,10.30
2019-05-05T04:07:00.417Z,10.30
2019-05-05T04:09:34.568Z,10.30
2019-05-05T04:12:04.714Z,10.30
2019-05-05T04:14:34.897Z,10.30
2019-05-05T04:17:15.761Z,10.30
2019-05-05T04:19:47.200Z,10.20
2019-05-05T04:22:20.156Z,10.20
2019-05-05T04:24:50.071Z,10.20
2019-05-05T04:27:19.929Z,10.20
2019-05-05T04:29:49.879Z,10.20
2019-05-05T04:32:19.692Z,10.20
2019-05-05T04:34:49.572Z,10.20
2019-05-05T04:37:19.533Z,10.20
2019-05-05T04:40:07.381Z,10.20
2019-05-05T04:42:37.359Z,10.20
2019-05-05T04:45:07.837Z,10.20
2019-05-05T04:47:48.270Z,10.10
2019-05-05T04:50:44.093Z,10.10
2019-05-05T04:53:13.529Z,10.10
2019-05-05T04:55:44.291Z,10.10
2019-05-05T04:58:14.375Z,10.10
2019-05-05T05:00:44.289Z,10.10
2019-05-05T05:03:32.065Z,10.10
2019-05-05T05:06:05.031Z,10.10
2019-05-05T05:08:34.986Z,10.10
2019-05-05T05:11:04.843Z,10.10
2019-05-05T05:13:34.887Z,10.10
2019-05-05T05:16:05.904Z,10.10
2019-05-05T05:18:35.761Z,10.10
2019-05-05T05:21:05.626Z,10.00
2019-05-05T05:23:35.439Z,10.10
2019-05-05T05:26:05.411Z,10.10
2019-05-05T05:28:35.281Z,10.10
2019-05-05T05:31:05.132Z,10.00
2019-05-05T05:33:34.971Z,10.00
2019-05-05T05:36:04.830Z,10.00
2019-05-05T05:38:43.785Z,10.00
2019-05-05T05:41:16.331Z,10.00
2019-05-05T05:43:57.100Z,10.00
2019-05-05T05:46:34.633Z,10.00
2019-05-05T05:49:10.963Z,10.00
2019-05-05T05:51:40.861Z,10.00
2019-05-05T05:54:10.685Z,10.00
2019-05-05T05:56:40.518Z,10.00
2019-05-05T05:59:16.414Z,10.00
2019-05-05T06:01:46.275Z,10.00
2019-05-05T06:04:16.141Z,10.00
2019-05-05T06:06:45.967Z,10.00
2019-05-05T06:09:23.765Z,10.10
2019-05-05T06:11:54.185Z,10.10
2019-05-05T06:14:26.888Z,10.10
2019-05-05T06:16:56.716Z,10.10
2019-05-05T06:19:26.623Z,10.10
2019-05-05T06:21:56.496Z,10.10
2019-05-05T06:24:26.311Z,10.10
2019-05-05T06:26:56.099Z,10.10
2019-05-05T06:29:26.002Z,10.10
2019-05-05T06:31:55.863Z,10.20
2019-05-05T06:34:25.813Z,10.20
2019-05-05T06:36:55.613Z,10.20
2019-05-05T06:39:25.533Z,10.20
2019-05-05T06:41:56.999Z,10.20
2019-05-05T06:44:34.434Z,10.30
2019-05-05T06:47:08.997Z,10.30
2019-05-05T06:49:48.972Z,10.30
2019-05-05T06:52:18.973Z,10.30
2019-05-05T06:54:48.792Z,10.30
2019-05-05T06:57:18.600Z,10.40
2019-05-05T06:59:48.477Z,10.40
2019-05-05T07:02:20.619Z,10.40
2019-05-05T07:04:56.636Z,10.40
2019-05-05T07:07:26.654Z,10.40
2019-05-05T07:10:14.079Z,10.40
2019-05-05T07:12:45.228Z,10.40
2019-05-05T07:15:16.329Z,10.40
2019-05-05T07:17:56.652Z,10.30
2019-05-05T07:21:27.189Z,10.30
2019-05-05T07:23:27.041Z,10.30
2019-05-05T07:25:57.009Z,10.30
2019-05-05T07:28:26.891Z,10.30
2019-05-05T07:30:56.857Z,10.30
2019-05-05T07:33:28.597Z,10.30
2019-05-05T07:36:20.113Z,10.30
2019-05-05T07:38:54.844Z,10.30
2019-05-05T07:41:28.514Z,10.40
2019-05-05T07:44:01.613Z,10.40
2019-05-05T07:46:31.537Z,10.40
2019-05-05T07:49:05.587Z,10.40
2019-05-05T07:51:35.437Z,10.50
2019-05-05T07:54:05.354Z,10.40
2019-05-05T07:56:37.869Z,10.40
2019-05-05T07:59:08.324Z,10.40
2019-05-05T08:01:43.073Z,10.50
2019-05-05T08:04:17.484Z,10.50
2019-05-05T08:07:14.709Z,10.50
2019-05-05T08:09:39.757Z,10.50
2019-05-05T08:12:15.806Z,10.50
2019-05-05T08:14:45.732Z,10.50
2019-05-05T08:17:25.451Z,10.50
